createdAt,value
2019-01-25T00:01:40.640Z,7.13
2019-01-25T00:04:10.235Z,8.13
2019-01-25T00:06:39.827Z,7.43
2019-01-25T00:09:09.821Z,7.57
2019-01-25T00:11:39.487Z,8.00
2019-01-25T00:14:09.197Z,7.87
2019-01-25T00:16:38.790Z,8.70
2019-01-25T00:19:08.459Z,7.90
2019-01-25T00:21:38.122Z,7.83
2019-01-25T00:24:07.832Z,8.23
2019-01-25T00:26:37.520Z,10.20
2019-01-25T00:29:07.089Z,7.63
2019-01-25T00:31:36.691Z,8.43
2019-01-25T00:34:06.325Z,8.10
2019-01-25T00:36:35.918Z,7.43
2019-01-25T00:39:07.625Z,7.67
2019-01-25T00:41:37.287Z,8.20
2019-01-25T00:44:07.035Z,7.07
2019-01-25T00:46:36.599Z,10.27
2019-01-25T00:49:06.356Z,7.77
2019-01-25T00:51:35.913Z,7.93
2019-01-25T00:54:06.291Z,6.93
2019-01-25T00:56:35.989Z,6.37
2019-01-25T00:59:05.943Z,7.87
2019-01-25T01:01:35.611Z,9.20
2019-01-25T01:04:05.925Z,7.07
2019-01-25T01:06:35.627Z,7.00
2019-01-25T01:09:08.599Z,8.47
2019-01-25T01:11:38.222Z,8.17
2019-01-25T01:14:07.847Z,7.10
2019-01-25T01:16:37.413Z,6.70
2019-01-25T01:19:07.118Z,7.43
2019-01-25T01:21:36.710Z,7.00
2019-01-25T01:24:06.367Z,7.83
2019-01-25T01:26:36.335Z,8.90
2019-01-25T01:29:05.946Z,7.57
2019-01-25T01:31:35.760Z,8.53
2019-01-25T01:34:05.616Z,7.20
2019-01-25T01:36:35.260Z,6.73
2019-01-25T01:39:07.080Z,9.43
2019-01-25T01:41:36.662Z,6.97
2019-01-25T01:44:06.296Z,8.43
2019-01-25T01:46:35.891Z,6.37
2019-01-25T01:49:05.912Z,7.93
2019-01-25T01:51:35.492Z,7.67
2019-01-25T01:54:05.384Z,7.17
2019-01-25T01:56:34.970Z,8.77
2019-01-25T01:59:04.554Z,6.90
2019-01-25T02:01:34.239Z,8.00
2019-01-25T02:04:03.960Z,7.73
2019-01-25T02:06:33.639Z,7.37
2019-01-25T02:09:05.158Z,7.50
2019-01-25T02:11:34.814Z,9.00
2019-01-25T02:14:04.468Z,8.13
2019-01-25T02:16:34.134Z,8.53
2019-01-25T02:19:04.508Z,8.43
2019-01-25T02:21:34.090Z,7.97
2019-01-25T02:24:03.696Z,7.10
2019-01-25T02:26:33.386Z,8.00
2019-01-25T02:29:02.892Z,7.53
2019-01-25T02:31:32.496Z,8.77
2019-01-25T02:34:02.379Z,7.70
2019-01-25T02:36:31.950Z,7.33
2019-01-25T02:39:01.634Z,7.50
2019-01-25T02:41:31.241Z,7.27
2019-01-25T02:44:01.375Z,8.27
2019-01-25T02:46:30.912Z,8.47
2019-01-25T02:49:00.525Z,7.70
2019-01-25T02:51:30.072Z,7.20
2019-01-25T02:53:59.642Z,8.00
2019-01-25T02:56:29.218Z,7.33
2019-01-25T02:58:58.821Z,7.43
2019-01-25T03:01:28.376Z,7.87
2019-01-25T03:03:58.025Z,7.70
2019-01-25T03:06:27.675Z,7.50
2019-01-25T03:08:57.237Z,7.63
2019-01-25T03:11:26.801Z,7.97
2019-01-25T03:13:56.424Z,8.03
2019-01-25T03:16:26.111Z,8.23
2019-01-25T03:18:55.674Z,7.13
2019-01-25T03:21:25.245Z,7.63
2019-01-25T03:23:54.842Z,8.10
2019-01-25T03:26:24.476Z,8.33
2019-01-25T03:28:54.119Z,7.30
2019-01-25T03:31:23.782Z,7.83
2019-01-25T03:33:53.419Z,8.90
2019-01-25T03:36:23.011Z,7.33
2019-01-25T03:38:52.577Z,7.50
2019-01-25T03:41:22.179Z,8.47
2019-01-25T03:43:51.970Z,8.53
2019-01-25T03:46:21.639Z,7.30
2019-01-25T03:48:51.366Z,7.10
2019-01-25T03:51:20.943Z,7.43
2019-01-25T03:53:50.733Z,6.83
2019-01-25T03:56:20.328Z,7.80
2019-01-25T03:58:49.985Z,8.27
2019-01-25T04:01:19.605Z,7.47
2019-01-25T04:03:49.153Z,7.97
2019-01-25T04:06:18.977Z,8.10
2019-01-25T04:08:48.769Z,7.80
2019-01-25T04:11:18.381Z,7.47
2019-01-25T04:13:48.129Z,9.33
2019-01-25T04:16:17.736Z,8.47
2019-01-25T04:18:47.399Z,8.43
2019-01-25T04:21:16.990Z,8.07
2019-01-25T04:23:46.580Z,8.43
2019-01-25T04:26:16.155Z,7.90
2019-01-25T04:28:45.754Z,8.50
2019-01-25T04:31:15.403Z,9.33
2019-01-25T04:33:45.001Z,8.40
2019-01-25T04:36:14.630Z,8.17
2019-01-25T04:38:44.355Z,9.60
2019-01-25T04:41:13.935Z,7.80
2019-01-25T04:43:43.511Z,7.10
2019-01-25T04:46:13.078Z,8.60
2019-01-25T04:48:42.643Z,12.67
2019-01-25T04:51:13.993Z,7.57
2019-01-25T04:53:43.556Z,7.50
2019-01-25T04:56:13.145Z,6.40
2019-01-25T04:58:42.729Z,7.37
2019-01-25T05:01:12.467Z,7.67
2019-01-25T05:03:42.276Z,7.93
2019-01-25T05:06:12.601Z,7.67
2019-01-25T05:08:42.176Z,6.43
2019-01-25T05:11:20.216Z,8.70
2019-01-25T05:13:50.041Z,7.97
2019-01-25T05:16:19.677Z,8.23
2019-01-25T05:18:49.245Z,8.23
2019-01-25T05:21:25.827Z,6.80
2019-01-25T05:23:55.417Z,8.30
2019-01-25T05:26:25.073Z,8.00
2019-01-25T05:28:54.671Z,9.40
2019-01-25T05:31:27.469Z,7.37
2019-01-25T05:33:59.271Z,6.10
2019-01-25T05:36:29.042Z,8.00
2019-01-25T05:38:58.629Z,7.27
2019-01-25T05:41:28.926Z,7.27
2019-01-25T05:43:58.611Z,7.77
2019-01-25T05:46:28.230Z,8.30
2019-01-25T05:48:57.851Z,8.20
2019-01-25T05:51:33.525Z,8.30
2019-01-25T05:53:58.743Z,6.77
2019-01-25T05:56:28.310Z,9.77
2019-01-25T05:58:57.896Z,7.80
2019-01-25T06:01:27.455Z,7.13
2019-01-25T06:03:58.033Z,7.70
2019-01-25T06:06:29.321Z,8.17
2019-01-25T06:08:58.880Z,7.73
2019-01-25T06:11:35.254Z,8.50
2019-01-25T06:13:59.757Z,9.07
2019-01-25T06:16:29.986Z,10.23
2019-01-25T06:18:59.530Z,10.13
2019-01-25T06:21:29.151Z,9.33
2019-01-25T06:23:58.717Z,9.77
2019-01-25T06:26:28.399Z,8.33
2019-01-25T06:28:57.969Z,8.70
2019-01-25T06:31:27.564Z,8.13
2019-01-25T06:33:57.100Z,8.63
2019-01-25T06:36:26.704Z,9.27
2019-01-25T06:38:56.268Z,9.17
2019-01-25T06:41:25.962Z,9.63
2019-01-25T06:43:55.521Z,8.90
2019-01-25T06:46:25.069Z,9.73
2019-01-25T06:48:54.679Z,9.70
2019-01-25T06:51:24.345Z,11.68
2019-01-25T06:53:53.948Z,11.27
2019-01-25T06:56:23.555Z,9.50
2019-01-25T06:59:24.317Z,8.20
2019-01-25T07:02:12.899Z,8.43
2019-01-25T07:04:42.504Z,7.43
2019-01-25T07:07:25.869Z,8.40
2019-01-25T07:09:55.464Z,7.83
2019-01-25T07:12:25.126Z,9.90
2019-01-25T07:14:54.760Z,9.70
2019-01-25T07:17:24.450Z,8.67
2019-01-25T07:19:54.072Z,8.73
2019-01-25T07:22:23.673Z,8.30
2019-01-25T07:24:57.286Z,8.33
2019-01-25T07:27:24.906Z,7.73
2019-01-25T07:29:54.592Z,8.00
2019-01-25T07:32:24.139Z,7.97
2019-01-25T07:34:53.741Z,8.93
2019-01-25T07:37:23.405Z,8.97
2019-01-25T07:39:53.055Z,8.90
2019-01-25T07:42:22.637Z,8.73
2019-01-25T07:44:52.239Z,8.27
2019-01-25T07:47:21.944Z,10.37
2019-01-25T07:49:51.584Z,9.90
2019-01-25T07:52:21.181Z,8.57
2019-01-25T07:54:50.817Z,9.37
2019-01-25T07:57:20.431Z,9.13
2019-01-25T07:59:50.038Z,8.37
2019-01-25T08:02:19.655Z,8.97
2019-01-25T08:04:50.111Z,9.67
2019-01-25T08:07:19.756Z,8.83
2019-01-25T08:09:49.329Z,8.17
2019-01-25T08:12:18.945Z,8.03
2019-01-25T08:14:48.618Z,7.77
2019-01-25T08:17:18.241Z,8.80
2019-01-25T08:19:47.925Z,8.83
2019-01-25T08:22:17.542Z,8.03
2019-01-25T08:24:47.131Z,8.97
2019-01-25T08:27:16.724Z,9.77
2019-01-25T08:29:46.327Z,8.13
2019-01-25T08:32:15.944Z,9.43
2019-01-25T08:34:45.511Z,8.27
2019-01-25T08:37:15.093Z,9.10
2019-01-25T08:39:44.893Z,8.33
2019-01-25T08:42:15.626Z,8.97
2019-01-25T08:44:45.540Z,8.47
2019-01-25T08:47:15.166Z,8.17
2019-01-25T08:49:44.857Z,8.83
2019-01-25T08:52:14.456Z,8.90
2019-01-25T08:54:44.038Z,9.10
2019-01-25T08:57:13.821Z,9.00
2019-01-25T08:59:45.618Z,9.70
2019-01-25T09:02:14.711Z,9.77
2019-01-25T09:04:44.593Z,9.53
2019-01-25T09:07:14.249Z,10.47
2019-01-25T09:09:43.851Z,10.30
2019-01-25T09:12:13.506Z,9.33
2019-01-25T09:14:43.160Z,8.30
2019-01-25T09:17:12.867Z,9.37
2019-01-25T09:19:42.430Z,8.07
2019-01-25T09:22:12.050Z,10.70
2019-01-25T09:24:41.652Z,9.40
2019-01-25T09:27:11.262Z,8.53
2019-01-25T09:29:40.866Z,10.20
2019-01-25T09:32:10.934Z,8.50
2019-01-25T09:34:40.533Z,8.53
2019-01-25T09:37:10.137Z,8.77
2019-01-25T09:39:39.748Z,8.40
2019-01-25T09:42:09.349Z,8.83
2019-01-25T09:44:38.897Z,8.73
2019-01-25T09:47:08.644Z,8.93
2019-01-25T09:49:38.255Z,8.43
2019-01-25T09:52:07.934Z,8.10
2019-01-25T09:54:37.587Z,7.70
2019-01-25T09:57:07.382Z,7.77
2019-01-25T09:59:37.023Z,7.73
2019-01-25T10:02:06.670Z,8.17
2019-01-25T10:04:36.281Z,7.53
2019-01-25T10:07:05.931Z,6.53
2019-01-25T10:09:35.511Z,8.60
2019-01-25T10:12:05.351Z,7.63
2019-01-25T10:14:35.027Z,8.27
2019-01-25T10:17:04.862Z,8.13
2019-01-25T10:19:34.464Z,7.57
2019-01-25T10:22:04.180Z,8.00
2019-01-25T10:24:33.789Z,8.93
2019-01-25T10:27:03.417Z,8.57
2019-01-25T10:29:33.006Z,8.40
2019-01-25T10:32:02.616Z,7.87
2019-01-25T10:34:32.265Z,6.60
2019-01-25T10:37:01.863Z,7.13
2019-01-25T10:39:31.636Z,6.73
2019-01-25T10:42:01.431Z,7.93
2019-01-25T10:44:31.075Z,7.23
2019-01-25T10:47:00.687Z,6.97
2019-01-25T10:49:30.269Z,8.63
2019-01-25T10:51:59.867Z,7.60
2019-01-25T10:54:29.646Z,7.63
2019-01-25T10:56:59.424Z,9.27
2019-01-25T10:59:29.195Z,5.80
2019-01-25T11:01:58.795Z,7.23
2019-01-25T11:04:28.485Z,7.37
2019-01-25T11:06:58.264Z,6.93
2019-01-25T11:09:27.879Z,7.17
2019-01-25T11:11:57.577Z,7.13
2019-01-25T11:14:27.281Z,7.30
2019-01-25T11:16:56.844Z,8.60
2019-01-25T11:19:26.412Z,7.07
2019-01-25T11:21:56.036Z,9.30
2019-01-25T11:24:25.631Z,8.20
2019-01-25T11:26:55.227Z,8.53
2019-01-25T11:29:24.896Z,8.07
2019-01-25T11:31:54.500Z,9.00
2019-01-25T11:34:24.098Z,8.97
2019-01-25T11:36:53.705Z,8.83
2019-01-25T11:39:23.346Z,9.13
2019-01-25T11:41:53.044Z,10.27
2019-01-25T11:44:22.669Z,8.57
2019-01-25T11:46:52.281Z,9.17
2019-01-25T11:49:21.890Z,10.00
2019-01-25T11:51:51.511Z,10.17
2019-01-25T11:54:21.188Z,10.90
2019-01-25T11:56:50.835Z,11.33
2019-01-25T11:59:20.461Z,9.97
2019-01-25T12:01:50.173Z,9.90
2019-01-25T12:04:19.779Z,10.67
2019-01-25T12:06:49.450Z,12.13
2019-01-25T12:09:19.100Z,9.67
2019-01-25T12:11:48.781Z,10.67
2019-01-25T12:14:18.402Z,10.90
2019-01-25T12:16:48.073Z,10.17
2019-01-25T12:19:17.774Z,10.33
2019-01-25T12:21:47.398Z,10.97
2019-01-25T12:24:19.893Z,10.13
2019-01-25T12:26:49.468Z,10.20
2019-01-25T12:29:19.133Z,11.80
2019-01-25T12:31:48.738Z,10.73
2019-01-25T12:34:18.331Z,10.43
2019-01-25T12:36:47.958Z,11.60
2019-01-25T12:39:17.570Z,11.87
2019-01-25T12:41:47.348Z,11.57
2019-01-25T12:44:17.056Z,10.27
2019-01-25T12:46:46.691Z,10.00
2019-01-25T12:49:16.269Z,9.50
2019-01-25T12:52:09.997Z,9.50
2019-01-25T12:54:39.720Z,10.83
2019-01-25T12:57:09.813Z,11.83
2019-01-25T12:59:39.484Z,12.13
2019-01-25T13:02:09.184Z,11.13
2019-01-25T13:04:38.831Z,9.13
2019-01-25T13:07:08.547Z,9.63
2019-01-25T13:09:38.162Z,11.27
2019-01-25T13:12:12.482Z,9.30
2019-01-25T13:14:42.047Z,10.10
2019-01-25T13:17:11.878Z,8.07
2019-01-25T13:19:41.464Z,10.73
2019-01-25T13:22:11.070Z,10.33
2019-01-25T13:24:40.656Z,9.07
2019-01-25T13:27:10.384Z,10.13
2019-01-25T13:29:39.958Z,10.60
2019-01-25T13:32:14.416Z,8.67
2019-01-25T13:34:41.008Z,9.17
2019-01-25T13:37:11.300Z,9.47
2019-01-25T13:39:40.932Z,9.90
2019-01-25T13:42:10.508Z,9.23
2019-01-25T13:44:40.130Z,8.47
2019-01-25T13:47:09.750Z,9.67
2019-01-25T13:49:39.478Z,11.13
2019-01-25T13:52:09.220Z,8.60
2019-01-25T13:54:38.946Z,11.53
2019-01-25T13:57:08.742Z,9.73
2019-01-25T13:59:38.832Z,10.33
2019-01-25T14:02:08.490Z,8.77
2019-01-25T14:04:38.144Z,10.73
2019-01-25T14:07:07.804Z,10.47
2019-01-25T14:09:37.504Z,11.43
2019-01-25T14:12:08.668Z,10.73
2019-01-25T14:14:38.546Z,9.80
2019-01-25T14:17:08.339Z,10.53
2019-01-25T14:19:37.963Z,14.87
2019-01-25T14:22:07.617Z,12.33
2019-01-25T14:24:46.974Z,12.13
2019-01-25T14:27:16.605Z,10.83
2019-01-25T14:29:46.326Z,11.27
2019-01-25T14:32:16.052Z,12.73
2019-01-25T14:34:45.725Z,11.63
2019-01-25T14:37:15.482Z,12.00
2019-01-25T14:39:45.412Z,10.00
2019-01-25T14:42:15.046Z,10.60
2019-01-25T14:44:44.859Z,11.80
2019-01-25T14:47:14.486Z,11.47
2019-01-25T14:49:44.127Z,11.27
2019-01-25T14:52:13.823Z,12.40
2019-01-25T14:54:43.673Z,12.20
2019-01-25T14:57:13.549Z,11.67
2019-01-25T14:59:44.369Z,13.47
2019-01-25T15:02:14.055Z,12.13
2019-01-25T15:04:43.832Z,12.00
2019-01-25T15:07:13.415Z,11.70
2019-01-25T15:09:43.607Z,13.00
2019-01-25T15:12:15.004Z,11.60
2019-01-25T15:14:44.979Z,10.53
2019-01-25T15:17:14.599Z,11.23
2019-01-25T15:19:44.796Z,12.33
2019-01-25T15:22:14.558Z,12.40
2019-01-25T15:24:44.269Z,12.03
2019-01-25T15:27:14.029Z,10.20
2019-01-25T15:29:49.720Z,9.13
2019-01-25T15:32:19.367Z,9.63
2019-01-25T15:34:49.148Z,10.97
2019-01-25T15:37:18.808Z,9.67
2019-01-25T15:39:48.511Z,9.20
2019-01-25T15:42:18.209Z,9.70
2019-01-25T15:44:47.877Z,10.63
2019-01-25T15:47:17.882Z,10.60
2019-01-25T15:49:47.579Z,9.43
2019-01-25T15:52:17.244Z,8.43
2019-01-25T15:54:47.704Z,9.60
2019-01-25T15:57:17.794Z,9.80
2019-01-25T15:59:47.337Z,8.87
2019-01-25T16:02:17.041Z,10.43
2019-01-25T16:04:46.660Z,10.03
2019-01-25T16:07:16.333Z,8.63
2019-01-25T16:09:46.077Z,9.47
2019-01-25T16:12:15.734Z,8.20
2019-01-25T16:14:45.421Z,8.40
2019-01-25T16:17:15.227Z,9.67
2019-01-25T16:19:44.826Z,9.40
2019-01-25T16:22:14.414Z,8.57
2019-01-25T16:24:44.341Z,8.80
2019-01-25T16:27:14.007Z,9.10
2019-01-25T16:29:43.685Z,8.47
2019-01-25T16:32:15.799Z,10.03
2019-01-25T16:35:02.259Z,8.50
2019-01-25T16:37:44.908Z,8.40
2019-01-25T16:40:18.854Z,8.63
2019-01-25T16:42:48.546Z,9.23
2019-01-25T16:45:23.573Z,9.03
2019-01-25T16:47:53.255Z,8.50
2019-01-25T16:50:23.803Z,8.50
2019-01-25T16:52:53.767Z,8.47
2019-01-25T16:55:23.543Z,9.03
2019-01-25T16:57:53.210Z,9.40
2019-01-25T17:00:26.589Z,8.90
2019-01-25T17:02:56.244Z,8.87
2019-01-25T17:05:26.557Z,8.57
2019-01-25T17:07:56.254Z,8.07
2019-01-25T17:10:26.088Z,9.37
2019-01-25T17:12:58.775Z,8.50
2019-01-25T17:15:28.530Z,9.67
2019-01-25T17:17:58.451Z,8.07
2019-01-25T17:20:28.225Z,9.07
2019-01-25T17:22:58.097Z,12.30
2019-01-25T17:25:27.787Z,9.20
2019-01-25T17:27:57.823Z,8.90
2019-01-25T17:30:29.343Z,8.37
2019-01-25T17:33:00.191Z,8.33
2019-01-25T17:35:30.302Z,9.37
2019-01-25T17:38:00.068Z,8.97
2019-01-25T17:40:35.972Z,8.37
2019-01-25T17:43:05.891Z,9.77
2019-01-25T17:45:35.595Z,8.50
2019-01-25T17:48:06.132Z,7.93
2019-01-25T17:50:35.810Z,10.83
2019-01-25T17:53:05.522Z,10.23
2019-01-25T17:55:35.200Z,8.63
2019-01-25T17:58:08.140Z,8.30
2019-01-25T18:00:55.455Z,9.57
2019-01-25T18:03:25.155Z,8.97
2019-01-25T18:05:54.772Z,10.67
2019-01-25T18:08:24.543Z,10.13
2019-01-25T18:10:54.226Z,9.27
2019-01-25T18:13:23.903Z,8.70
2019-01-25T18:15:53.608Z,8.90
2019-01-25T18:18:23.276Z,9.73
2019-01-25T18:20:52.924Z,9.17
2019-01-25T18:23:22.581Z,8.47
2019-01-25T18:26:06.037Z,10.23
2019-01-25T18:28:39.719Z,10.70
2019-01-25T18:31:16.499Z,10.20
2019-01-25T18:33:46.284Z,11.60
2019-01-25T18:36:21.973Z,8.77
2019-01-25T18:38:51.589Z,9.20
2019-01-25T18:41:21.296Z,10.73
2019-01-25T18:43:51.009Z,10.97
2019-01-25T18:46:20.644Z,9.80
2019-01-25T18:48:50.243Z,8.93
2019-01-25T18:51:19.893Z,9.63
2019-01-25T18:53:49.491Z,9.03
2019-01-25T18:56:21.037Z,10.83
2019-01-25T18:58:50.657Z,11.13
2019-01-25T19:01:20.348Z,10.37
2019-01-25T19:03:50.723Z,9.83
2019-01-25T19:06:20.343Z,8.37
2019-01-25T19:08:50.003Z,9.00
2019-01-25T19:11:19.787Z,9.07
2019-01-25T19:13:49.461Z,8.97
2019-01-25T19:16:19.193Z,9.23
2019-01-25T19:18:48.809Z,9.33
2019-01-25T19:21:20.856Z,9.77
2019-01-25T19:23:50.273Z,8.67
2019-01-25T19:26:20.025Z,9.30
2019-01-25T19:28:49.707Z,9.30
2019-01-25T19:31:19.334Z,9.30
2019-01-25T19:33:49.090Z,8.17
2019-01-25T19:36:18.770Z,8.97
2019-01-25T19:38:48.522Z,9.83
2019-01-25T19:41:18.195Z,7.63
2019-01-25T19:43:47.991Z,9.27
2019-01-25T19:46:17.582Z,11.43
2019-01-25T19:48:47.262Z,9.33
2019-01-25T19:51:16.996Z,9.00
2019-01-25T19:53:46.725Z,8.40
2019-01-25T19:56:16.341Z,8.10
2019-01-25T19:58:46.000Z,10.00
2019-01-25T20:01:15.702Z,8.90
2019-01-25T20:03:45.486Z,8.80
2019-01-25T20:06:18.538Z,9.73
2019-01-25T20:08:48.242Z,9.43
2019-01-25T20:11:17.876Z,9.93
2019-01-25T20:13:48.617Z,8.60
2019-01-25T20:16:18.314Z,8.27
2019-01-25T20:18:47.948Z,8.57
2019-01-25T20:21:17.554Z,9.57
2019-01-25T20:23:47.220Z,10.00
2019-01-25T20:26:16.934Z,10.00
2019-01-25T20:28:46.597Z,10.43
2019-01-25T20:31:16.312Z,8.13
2019-01-25T20:33:46.024Z,10.30
2019-01-25T20:36:15.669Z,7.73
2019-01-25T20:38:45.306Z,8.50
2019-01-25T20:41:15.135Z,8.60
2019-01-25T20:43:44.734Z,10.03
2019-01-25T20:46:14.462Z,9.10
2019-01-25T20:48:44.080Z,9.13
2019-01-25T20:51:13.763Z,8.63
2019-01-25T20:53:43.494Z,9.53
2019-01-25T20:56:13.122Z,9.27
2019-01-25T20:58:42.776Z,8.23
2019-01-25T21:01:14.946Z,8.10
2019-01-25T21:03:47.509Z,9.30
2019-01-25T21:06:17.266Z,9.33
2019-01-25T21:08:46.862Z,8.77
2019-01-25T21:11:16.552Z,8.87
2019-01-25T21:13:46.302Z,9.70
2019-01-25T21:16:19.426Z,9.07
2019-01-25T21:18:49.062Z,8.93
2019-01-25T21:21:18.728Z,9.77
2019-01-25T21:23:48.463Z,8.57
2019-01-25T21:26:18.156Z,10.10
2019-01-25T21:28:47.871Z,9.80
2019-01-25T21:31:17.510Z,7.83
2019-01-25T21:33:47.289Z,8.33
2019-01-25T21:36:16.922Z,10.93
2019-01-25T21:38:47.076Z,10.53
2019-01-25T21:41:16.726Z,10.17
2019-01-25T21:43:46.341Z,11.40
2019-01-25T21:46:17.882Z,10.00
2019-01-25T21:48:47.645Z,9.90
2019-01-25T21:51:17.330Z,9.00
2019-01-25T21:53:47.110Z,8.10
2019-01-25T21:56:16.983Z,8.70
2019-01-25T21:58:46.953Z,7.77
2019-01-25T22:01:16.661Z,8.60
2019-01-25T22:03:46.268Z,11.77
2019-01-25T22:06:16.051Z,8.47
2019-01-25T22:08:45.718Z,9.33
2019-01-25T22:11:15.343Z,9.77
2019-01-25T22:13:44.954Z,8.73
2019-01-25T22:16:14.582Z,8.10
2019-01-25T22:18:44.168Z,9.33
2019-01-25T22:21:13.870Z,9.20
2019-01-25T22:23:43.636Z,8.03
2019-01-25T22:26:13.264Z,8.60
2019-01-25T22:28:42.848Z,8.57
2019-01-25T22:31:12.482Z,8.53
2019-01-25T22:33:42.144Z,9.57
2019-01-25T22:36:11.834Z,8.43
2019-01-25T22:38:41.425Z,6.73
2019-01-25T22:41:11.095Z,8.50
2019-01-25T22:43:40.695Z,8.80
2019-01-25T22:46:10.281Z,8.93
2019-01-25T22:48:39.903Z,8.87
2019-01-25T22:51:09.567Z,8.60
2019-01-25T22:53:39.933Z,9.27
2019-01-25T22:56:09.640Z,8.70
2019-01-25T22:58:39.366Z,7.67
2019-01-25T23:01:25.794Z,8.23
2019-01-25T23:04:44.796Z,7.73
2019-01-25T23:07:19.472Z,9.47
2019-01-25T23:10:10.315Z,7.83
2019-01-25T23:12:39.986Z,7.50
2019-01-25T23:15:12.014Z,6.57
2019-01-25T23:17:42.125Z,6.97
2019-01-25T23:22:51.414Z,7.00
2019-01-25T23:25:21.054Z,7.17
2019-01-25T23:27:50.621Z,7.13
2019-01-25T23:30:35.941Z,6.60
2019-01-25T23:33:06.235Z,6.33
2019-01-25T23:35:37.913Z,7.23
2019-01-25T23:38:09.173Z,6.83
2019-01-25T23:40:38.764Z,7.33
2019-01-25T23:43:08.413Z,6.80
2019-01-25T23:45:38.347Z,5.53
2019-01-25T23:48:08.353Z,5.57
2019-01-25T23:50:37.944Z,6.03
2019-01-25T23:53:07.836Z,6.33
2019-01-25T23:55:37.438Z,6.83
2019-01-25T23:58:06.993Z,6.67
